createdAt,value
2017-09-09T00:00:00.367Z,0
2017-09-09T00:00:59.667Z,0
2017-09-09T00:02:00.336Z,0
2017-09-09T00:03:00.140Z,0
2017-09-09T00:04:00.727Z,0
2017-09-09T00:05:00.438Z,0
2017-09-09T00:06:00.763Z,0
2017-09-09T00:07:00.266Z,0
2017-09-09T00:08:00.984Z,0
2017-09-09T00:09:01.234Z,0
2017-09-09T00:10:01.353Z,0
2017-09-09T00:11:00.837Z,0
2017-09-09T00:12:02.137Z,0
2017-09-09T00:13:01.583Z,0
2017-09-09T00:14:01.901Z,0
2017-09-09T00:15:01.641Z,0
2017-09-09T00:16:01.648Z,0
2017-09-09T00:17:01.385Z,0
2017-09-09T00:18:02.107Z,0
2017-09-09T00:19:02.453Z,0
2017-09-09T00:20:02.134Z,0
2017-09-09T00:21:01.900Z,0
2017-09-09T00:22:02.846Z,0
2017-09-09T00:23:02.895Z,0
2017-09-09T00:24:02.388Z,0
2017-09-09T00:25:03.591Z,0
2017-09-09T00:26:02.783Z,0
2017-09-09T00:27:03.135Z,0
2017-09-09T00:28:03.149Z,0
2017-09-09T00:29:03.169Z,0
2017-09-09T00:30:04.233Z,0
2017-09-09T00:31:03.664Z,0
2017-09-09T00:32:03.710Z,0
2017-09-09T00:33:04.694Z,0
2017-09-09T00:34:04.717Z,0
2017-09-09T00:35:04.479Z,0
2017-09-09T00:36:04.780Z,0
2017-09-09T00:37:04.765Z,0
2017-09-09T00:38:04.158Z,0
2017-09-09T00:39:05.125Z,0
2017-09-09T00:40:58.726Z,0
2017-09-09T00:41:27.262Z,0
2017-09-09T00:42:27.297Z,0
2017-09-09T00:43:27.946Z,0
2017-09-09T00:44:27.982Z,0
2017-09-09T00:45:27.710Z,0
2017-09-09T00:46:28.122Z,0
2017-09-09T00:47:28.786Z,0
2017-09-09T00:48:28.545Z,0
2017-09-09T00:49:28.811Z,0
2017-09-09T00:50:28.203Z,0
2017-09-09T00:51:29.180Z,0
2017-09-09T00:52:29.211Z,0
2017-09-09T00:53:29.207Z,0
2017-09-09T00:54:28.315Z,0
2017-09-09T00:55:29.008Z,0
2017-09-09T00:56:29.298Z,0
2017-09-09T00:57:29.072Z,0
2017-09-09T00:58:29.389Z,0
2017-09-09T00:59:29.143Z,0
2017-09-09T01:00:28.852Z,0
2017-09-09T01:01:29.183Z,0
2017-09-09T01:02:28.946Z,0
2017-09-09T01:03:29.290Z,0
2017-09-09T01:04:30.048Z,0
2017-09-09T01:05:30.039Z,0
2017-09-09T01:06:29.689Z,0
2017-09-09T01:07:30.012Z,0
2017-09-09T01:08:30.033Z,0
2017-09-09T01:09:30.121Z,0
2017-09-09T01:10:30.131Z,0
2017-09-09T01:11:30.118Z,0
2017-09-09T01:12:30.540Z,0
2017-09-09T01:13:29.940Z,0
2017-09-09T01:14:30.194Z,0
2017-09-09T01:15:30.752Z,0
2017-09-09T01:16:30.781Z,0
2017-09-09T01:17:30.341Z,0
2017-09-09T01:18:30.368Z,0
2017-09-09T01:19:30.430Z,0
2017-09-09T01:20:30.506Z,0
2017-09-09T01:21:30.831Z,0
2017-09-09T01:22:30.902Z,0
2017-09-09T01:23:30.265Z,0
2017-09-09T01:24:30.672Z,0
2017-09-09T01:25:31.317Z,0
2017-09-09T01:26:31.018Z,0
2017-09-09T01:27:30.428Z,0
2017-09-09T01:28:30.809Z,0
2017-09-09T01:29:31.484Z,0
2017-09-09T01:30:30.618Z,0
2017-09-09T01:31:30.947Z,0
2017-09-09T01:32:31.595Z,0
2017-09-09T01:33:31.321Z,0
2017-09-09T01:34:30.720Z,0
2017-09-09T01:35:31.411Z,0
2017-09-09T01:36:31.443Z,0
2017-09-09T01:37:31.149Z,0
2017-09-09T01:38:32.140Z,0
2017-09-09T01:39:31.249Z,0
2017-09-09T01:40:31.640Z,0
2017-09-09T01:41:32.360Z,0
2017-09-09T01:42:32.686Z,0
2017-09-09T01:43:32.731Z,0
2017-09-09T01:44:32.390Z,0
2017-09-09T01:45:32.187Z,0
2017-09-09T01:46:32.285Z,0
2017-09-09T01:47:32.942Z,0
2017-09-09T01:48:33.589Z,0
2017-09-09T01:49:33.326Z,0
2017-09-09T01:50:33.723Z,0
2017-09-09T01:51:33.059Z,0
2017-09-09T01:52:33.763Z,0
2017-09-09T01:53:33.800Z,0
2017-09-09T01:54:33.529Z,0
2017-09-09T01:55:33.906Z,0
2017-09-09T01:56:33.929Z,0
2017-09-09T01:57:34.645Z,0
2017-09-09T01:58:34.326Z,0
2017-09-09T01:59:34.690Z,0
2017-09-09T02:00:35.629Z,0
2017-09-09T02:01:35.774Z,0
2017-09-09T02:02:35.837Z,0
2017-09-09T02:03:35.518Z,0
2017-09-09T02:04:35.501Z,0
2017-09-09T02:05:35.516Z,0
2017-09-09T02:06:35.546Z,0
2017-09-09T02:07:36.211Z,0
2017-09-09T02:08:35.920Z,0
2017-09-09T02:09:36.230Z,0
2017-09-09T02:10:36.231Z,0
2017-09-09T02:11:35.662Z,0
2017-09-09T02:12:36.351Z,0
2017-09-09T02:13:36.393Z,0
2017-09-09T02:14:36.747Z,0
2017-09-09T02:15:36.465Z,0
2017-09-09T02:16:36.469Z,0
2017-09-09T02:17:37.156Z,0
2017-09-09T02:18:36.873Z,0
2017-09-09T02:19:37.524Z,0
2017-09-09T02:20:36.972Z,0
2017-09-09T02:21:37.304Z,0
2017-09-09T02:22:37.720Z,0
2017-09-09T02:23:38.045Z,0
2017-09-09T02:24:38.115Z,0
2017-09-09T02:25:38.145Z,0
2017-09-09T02:26:37.560Z,0
2017-09-09T02:27:38.011Z,0
2017-09-09T02:28:38.022Z,0
2017-09-09T02:29:38.774Z,0
2017-09-09T02:30:38.418Z,0
2017-09-09T02:31:38.744Z,0
2017-09-09T02:32:38.448Z,0
2017-09-09T02:33:38.814Z,0
2017-09-09T02:34:38.832Z,0
2017-09-09T02:35:38.954Z,0
2017-09-09T02:36:38.717Z,0
2017-09-09T02:37:38.469Z,0
2017-09-09T02:38:39.291Z,0
2017-09-09T02:39:39.754Z,0
2017-09-09T02:40:38.688Z,0
2017-09-09T02:41:39.091Z,0
2017-09-09T02:42:38.549Z,0
2017-09-09T02:43:39.249Z,0
2017-09-09T02:44:38.954Z,0
2017-09-09T02:45:38.649Z,0
2017-09-09T02:46:39.065Z,0
2017-09-09T02:47:39.357Z,0
2017-09-09T02:48:39.138Z,0
2017-09-09T02:49:39.449Z,0
2017-09-09T02:50:39.179Z,0
2017-09-09T02:51:39.483Z,0
2017-09-09T02:52:38.959Z,0
2017-09-09T02:53:39.923Z,0
2017-09-09T02:54:39.977Z,0
2017-09-09T02:55:39.369Z,0
2017-09-09T02:56:40.032Z,0
2017-09-09T02:57:40.452Z,0
2017-09-09T02:58:40.431Z,0
2017-09-09T02:59:39.811Z,0
2017-09-09T03:00:40.450Z,0
2017-09-09T03:01:40.811Z,0
2017-09-09T03:02:40.238Z,0
2017-09-09T03:03:40.315Z,0
2017-09-09T03:04:40.976Z,0
2017-09-09T03:05:41.013Z,0
2017-09-09T03:06:40.713Z,0
2017-09-09T03:07:41.368Z,0
2017-09-09T03:08:41.821Z,0
2017-09-09T03:09:40.846Z,0
2017-09-09T03:10:41.485Z,0
2017-09-09T03:11:41.811Z,0
2017-09-09T03:12:42.494Z,0
2017-09-09T03:13:42.196Z,0
2017-09-09T03:14:42.219Z,0
2017-09-09T03:15:42.928Z,0
2017-09-09T03:16:42.964Z,0
2017-09-09T03:17:42.975Z,0
2017-09-09T03:18:43.340Z,0
2017-09-09T03:19:42.487Z,0
2017-09-09T03:20:43.474Z,0
2017-09-09T03:21:43.189Z,0
2017-09-09T03:22:43.259Z,0
2017-09-09T03:23:43.594Z,0
2017-09-09T03:24:43.264Z,0
2017-09-09T03:25:43.285Z,0
2017-09-09T03:26:43.332Z,0
2017-09-09T03:27:43.402Z,0
2017-09-09T03:28:43.428Z,0
2017-09-09T03:29:43.444Z,0
2017-09-09T03:30:43.198Z,0
2017-09-09T03:31:43.595Z,0
2017-09-09T03:32:43.587Z,0
2017-09-09T03:33:43.976Z,0
2017-09-09T03:34:43.656Z,0
2017-09-09T03:35:43.755Z,0
2017-09-09T03:36:43.469Z,0
2017-09-09T03:37:44.162Z,0
2017-09-09T03:38:44.487Z,0
2017-09-09T03:39:44.493Z,0
2017-09-09T03:40:44.634Z,0
2017-09-09T03:41:44.286Z,0
2017-09-09T03:42:43.945Z,0
2017-09-09T03:43:44.749Z,0
2017-09-09T03:44:44.696Z,0
2017-09-09T03:45:44.676Z,0
2017-09-09T03:46:44.993Z,0
2017-09-09T03:47:44.174Z,0
2017-09-09T03:48:44.585Z,0
2017-09-09T03:49:44.959Z,0
2017-09-09T03:50:45.211Z,0
2017-09-09T03:51:45.253Z,0
2017-09-09T03:52:45.030Z,0
2017-09-09T03:53:45.050Z,0
2017-09-09T03:54:45.715Z,0
2017-09-09T03:55:45.777Z,0
2017-09-09T03:56:46.111Z,0
2017-09-09T03:57:45.560Z,0
2017-09-09T03:58:45.925Z,0
2017-09-09T03:59:45.958Z,0
2017-09-09T04:00:45.923Z,0
2017-09-09T04:01:45.636Z,0
2017-09-09T04:02:45.831Z,0
2017-09-09T04:03:46.471Z,0
2017-09-09T04:04:46.804Z,0
2017-09-09T04:05:46.610Z,0
2017-09-09T04:06:46.904Z,0
2017-09-09T04:07:46.364Z,0
2017-09-09T04:08:46.772Z,0
2017-09-09T04:09:47.037Z,0
2017-09-09T04:10:46.813Z,0
2017-09-09T04:11:47.216Z,0
2017-09-09T04:12:46.871Z,0
2017-09-09T04:13:46.328Z,0
2017-09-09T04:14:47.274Z,0
2017-09-09T04:15:47.283Z,0
2017-09-09T04:16:47.341Z,0
2017-09-09T04:17:47.364Z,0
2017-09-09T04:18:47.347Z,0
2017-09-09T04:19:47.439Z,0
2017-09-09T04:20:47.094Z,0
2017-09-09T04:21:46.844Z,0
2017-09-09T04:22:47.260Z,0
2017-09-09T04:23:47.984Z,0
2017-09-09T04:24:47.994Z,0
2017-09-09T04:25:48.016Z,0
2017-09-09T04:26:47.403Z,0
2017-09-09T04:27:48.081Z,0
2017-09-09T04:28:47.785Z,0
2017-09-09T04:29:47.789Z,0
2017-09-09T04:30:48.465Z,0
2017-09-09T04:31:48.726Z,0
2017-09-09T04:32:48.509Z,5
2017-09-09T04:33:48.302Z,5
2017-09-09T04:34:48.687Z,5
2017-09-09T04:35:49.392Z,5
2017-09-09T04:36:49.426Z,5
2017-09-09T04:37:49.142Z,5
2017-09-09T04:38:50.140Z,5
2017-09-09T04:39:50.153Z,5
2017-09-09T04:40:49.962Z,5
2017-09-09T04:41:49.651Z,5
2017-09-09T04:42:49.752Z,10
2017-09-09T04:43:50.777Z,10
2017-09-09T04:44:50.483Z,10
2017-09-09T04:45:50.523Z,10
2017-09-09T04:46:50.560Z,10
2017-09-09T04:47:50.992Z,10
2017-09-09T04:48:50.643Z,10
2017-09-09T04:49:51.073Z,10
2017-09-09T04:50:51.750Z,15
2017-09-09T04:51:52.233Z,15
2017-09-09T04:52:51.777Z,15
2017-09-09T04:53:51.885Z,15
2017-09-09T04:54:51.832Z,15
2017-09-09T04:55:51.661Z,20
2017-09-09T04:56:52.053Z,20
2017-09-09T04:57:51.665Z,25
2017-09-09T04:58:52.046Z,30
2017-09-09T04:59:52.324Z,35
2017-09-09T05:00:52.023Z,35
2017-09-09T05:01:52.068Z,40
2017-09-09T05:02:51.539Z,40
2017-09-09T05:03:52.252Z,35
2017-09-09T05:04:52.636Z,35
2017-09-09T05:05:52.729Z,35
2017-09-09T05:06:52.668Z,35
2017-09-09T05:07:52.393Z,35
2017-09-09T05:08:53.429Z,30
2017-09-09T05:09:53.709Z,30
2017-09-09T05:10:53.129Z,30
2017-09-09T05:11:52.255Z,30
2017-09-09T05:12:52.940Z,30
2017-09-09T05:13:53.457Z,30
2017-09-09T05:14:53.610Z,30
2017-09-09T05:15:53.654Z,30
2017-09-09T05:16:53.600Z,30
2017-09-09T05:17:53.103Z,30
2017-09-09T05:18:53.806Z,25
2017-09-09T05:19:53.601Z,25
2017-09-09T05:20:54.324Z,30
2017-09-09T05:21:54.410Z,30
2017-09-09T05:22:54.170Z,30
2017-09-09T05:23:53.519Z,30
2017-09-09T05:24:54.524Z,30
2017-09-09T05:25:54.641Z,30
2017-09-09T05:26:54.716Z,30
2017-09-09T05:27:55.070Z,25
2017-09-09T05:28:54.794Z,25
2017-09-09T05:29:54.852Z,25
2017-09-09T05:30:55.823Z,30
2017-09-09T05:31:55.552Z,30
2017-09-09T05:32:55.600Z,35
2017-09-09T05:33:55.620Z,35
2017-09-09T05:34:55.726Z,35
2017-09-09T05:35:55.679Z,35
2017-09-09T05:36:55.731Z,35
2017-09-09T05:37:56.091Z,40
2017-09-09T05:38:56.052Z,40
2017-09-09T05:39:56.183Z,45
2017-09-09T05:40:56.163Z,55
2017-09-09T05:41:55.259Z,60
2017-09-09T05:42:55.959Z,65
2017-09-09T05:43:56.054Z,70
2017-09-09T05:44:56.431Z,70
2017-09-09T05:45:55.875Z,70
2017-09-09T05:46:57.205Z,70
2017-09-09T05:47:57.251Z,75
2017-09-09T05:48:57.691Z,80
2017-09-09T05:49:57.064Z,90
2017-09-09T05:50:57.771Z,100
2017-09-09T05:51:57.176Z,100
2017-09-09T05:52:57.626Z,105
2017-09-09T05:53:58.274Z,110
2017-09-09T05:54:57.406Z,110
2017-09-09T05:55:58.397Z,110
2017-09-09T05:56:57.818Z,110
2017-09-09T05:57:58.198Z,105
2017-09-09T05:58:58.881Z,100
2017-09-09T05:59:58.975Z,100
2017-09-09T06:00:59.631Z,100
2017-09-09T06:01:59.955Z,100
2017-09-09T06:02:59.681Z,100
2017-09-09T06:03:59.862Z,100
2017-09-09T06:04:59.502Z,105
2017-09-09T06:05:58.892Z,105
2017-09-09T06:06:59.588Z,115
2017-09-09T06:07:59.662Z,125
2017-09-09T06:08:59.690Z,135
2017-09-09T06:09:59.804Z,145
2017-09-09T06:11:00.225Z,155
2017-09-09T06:12:00.995Z,165
2017-09-09T06:13:01.706Z,175
2017-09-09T06:14:01.765Z,185
2017-09-09T06:15:01.851Z,185
2017-09-09T06:16:01.786Z,180
2017-09-09T06:17:01.203Z,175
2017-09-09T06:18:01.277Z,165
2017-09-09T06:19:02.286Z,155
2017-09-09T06:20:02.344Z,145
2017-09-09T06:21:02.063Z,140
2017-09-09T06:22:02.114Z,140
2017-09-09T06:23:02.113Z,135
2017-09-09T06:24:02.255Z,130
2017-09-09T06:25:03.043Z,125
2017-09-09T06:26:02.733Z,110
2017-09-09T06:27:03.837Z,100
2017-09-09T06:28:03.574Z,95
2017-09-09T06:29:03.849Z,95
2017-09-09T06:30:03.557Z,100
2017-09-09T06:31:02.947Z,105
2017-09-09T06:32:03.384Z,110
2017-09-09T06:33:04.061Z,110
2017-09-09T06:34:04.178Z,110
2017-09-09T06:35:04.622Z,115
2017-09-09T06:36:03.860Z,115
2017-09-09T06:37:03.607Z,120
2017-09-09T06:38:04.311Z,125
2017-09-09T06:39:04.327Z,125
2017-09-09T06:40:04.478Z,125
2017-09-09T06:41:04.531Z,130
2017-09-09T06:42:04.285Z,130
2017-09-09T06:43:04.976Z,140
2017-09-09T06:44:04.677Z,145
2017-09-09T06:45:04.994Z,150
2017-09-09T06:46:05.047Z,150
2017-09-09T06:47:05.102Z,150
2017-09-09T06:48:04.800Z,150
2017-09-09T06:49:04.501Z,150
2017-09-09T06:50:05.214Z,150
2017-09-09T06:51:05.231Z,150
2017-09-09T06:52:04.673Z,155
2017-09-09T06:53:05.029Z,150
2017-09-09T06:54:04.823Z,150
2017-09-09T06:55:05.520Z,150
2017-09-09T06:56:05.924Z,145
2017-09-09T06:57:04.969Z,140
2017-09-09T06:58:05.873Z,135
2017-09-09T06:59:05.670Z,135
2017-09-09T07:00:05.685Z,130
2017-09-09T07:01:05.748Z,125
2017-09-09T07:02:05.738Z,120
2017-09-09T07:03:06.238Z,120
2017-09-09T07:04:05.478Z,115
2017-09-09T07:05:05.612Z,115
2017-09-09T07:06:06.377Z,115
2017-09-09T07:07:06.043Z,110
2017-09-09T07:08:06.376Z,110
2017-09-09T07:09:06.104Z,105
2017-09-09T07:10:06.816Z,105
2017-09-09T07:11:06.240Z,110
2017-09-09T07:12:06.351Z,110
2017-09-09T07:13:07.421Z,100
2017-09-09T07:14:07.142Z,95
2017-09-09T07:15:07.806Z,105
2017-09-09T07:16:06.825Z,115
2017-09-09T07:17:07.211Z,110
2017-09-09T07:18:07.875Z,105
2017-09-09T07:19:07.927Z,100
2017-09-09T07:20:08.302Z,95
2017-09-09T07:21:07.988Z,85
2017-09-09T07:22:07.410Z,80
2017-09-09T07:23:07.805Z,80
2017-09-09T07:24:08.486Z,90
2017-09-09T07:25:08.944Z,90
2017-09-09T07:26:08.805Z,90
2017-09-09T07:27:08.274Z,100
2017-09-09T07:28:08.688Z,105
2017-09-09T07:29:09.426Z,115
2017-09-09T07:30:09.737Z,125
2017-09-09T07:31:09.442Z,135
2017-09-09T07:32:08.985Z,145
2017-09-09T07:33:08.721Z,145
2017-09-09T07:34:09.411Z,145
2017-09-09T07:35:09.835Z,145
2017-09-09T07:36:09.868Z,155
2017-09-09T07:37:09.592Z,155
2017-09-09T07:38:10.026Z,155
2017-09-09T07:39:10.304Z,160
2017-09-09T07:40:09.779Z,155
2017-09-09T07:41:10.500Z,165
2017-09-09T07:42:11.178Z,175
2017-09-09T07:43:11.272Z,180
2017-09-09T07:44:10.598Z,180
2017-09-09T07:45:11.390Z,170
2017-09-09T07:46:11.038Z,165
2017-09-09T07:47:11.200Z,150
2017-09-09T07:48:11.587Z,145
2017-09-09T07:49:11.401Z,150
2017-09-09T07:50:12.099Z,160
2017-09-09T07:51:12.047Z,165
2017-09-09T07:52:12.149Z,175
2017-09-09T07:53:11.841Z,180
2017-09-09T07:54:12.499Z,170
2017-09-09T07:55:12.613Z,160
2017-09-09T07:56:12.342Z,145
2017-09-09T07:57:12.119Z,140
2017-09-09T07:58:13.086Z,135
2017-09-09T07:59:13.142Z,125
2017-09-09T08:00:13.278Z,120
2017-09-09T08:01:13.700Z,110
2017-09-09T08:02:13.465Z,110
2017-09-09T08:03:14.519Z,110
2017-09-09T08:04:14.162Z,115
2017-09-09T08:05:13.770Z,120
2017-09-09T08:06:13.928Z,115
2017-09-09T08:07:14.339Z,115
2017-09-09T08:08:14.376Z,115
2017-09-09T08:09:13.779Z,120
2017-09-09T08:10:14.570Z,115
2017-09-09T08:11:14.165Z,115
2017-09-09T08:12:14.344Z,120
2017-09-09T08:13:14.779Z,130
2017-09-09T08:14:14.802Z,140
2017-09-09T08:15:15.083Z,145
2017-09-09T08:16:15.735Z,140
2017-09-09T08:17:15.221Z,135
2017-09-09T08:18:15.941Z,135
2017-09-09T08:19:16.012Z,130
2017-09-09T08:20:16.116Z,130
2017-09-09T08:21:15.757Z,135
2017-09-09T08:22:15.798Z,145
2017-09-09T08:23:15.878Z,140
2017-09-09T08:24:15.386Z,130
2017-09-09T08:25:16.974Z,120
2017-09-09T08:26:16.301Z,115
2017-09-09T08:27:16.959Z,125
2017-09-09T08:28:16.767Z,135
2017-09-09T08:29:17.707Z,140
2017-09-09T08:30:17.595Z,135
2017-09-09T08:31:17.285Z,130
2017-09-09T08:32:17.357Z,130
2017-09-09T08:33:17.464Z,125
2017-09-09T08:34:17.878Z,130
2017-09-09T08:35:18.538Z,125
2017-09-09T08:36:18.549Z,125
2017-09-09T08:37:18.639Z,120
2017-09-09T08:38:18.661Z,120
2017-09-09T08:39:18.078Z,120
2017-09-09T08:40:18.530Z,125
2017-09-09T08:41:18.527Z,130
2017-09-09T08:42:18.621Z,135
2017-09-09T08:43:19.023Z,140
2017-09-09T08:44:19.368Z,140
2017-09-09T08:45:18.413Z,140
2017-09-09T08:46:18.774Z,135
2017-09-09T08:47:19.125Z,130
2017-09-09T08:48:19.495Z,135
2017-09-09T08:49:18.927Z,135
2017-09-09T08:50:19.289Z,130
2017-09-09T08:51:19.082Z,135
2017-09-09T08:52:20.133Z,145
2017-09-09T08:53:19.520Z,150
2017-09-09T08:54:19.889Z,145
2017-09-09T08:55:19.289Z,140
2017-09-09T08:56:19.679Z,135
2017-09-09T08:57:20.031Z,135
2017-09-09T08:58:20.355Z,150
2017-09-09T08:59:19.805Z,165
2017-09-09T09:00:21.762Z,160
2017-09-09T09:01:22.241Z,150
2017-09-09T09:02:22.032Z,145
2017-09-09T09:03:21.409Z,140
2017-09-09T09:04:22.066Z,145
2017-09-09T09:05:22.453Z,140
2017-09-09T09:06:22.820Z,145
2017-09-09T09:07:22.213Z,165
2017-09-09T09:08:22.559Z,175
2017-09-09T09:09:22.608Z,170
2017-09-09T09:10:22.005Z,165
2017-09-09T09:11:22.421Z,165
2017-09-09T09:12:22.824Z,165
2017-09-09T09:13:23.255Z,165
2017-09-09T09:14:23.536Z,170
2017-09-09T09:15:23.228Z,170
2017-09-09T09:16:23.272Z,175
2017-09-09T09:17:23.574Z,170
2017-09-09T09:18:24.621Z,165
2017-09-09T09:19:24.643Z,165
2017-09-09T09:20:24.086Z,160
2017-09-09T09:21:24.543Z,155
2017-09-09T09:22:24.634Z,150
2017-09-09T09:23:25.062Z,145
2017-09-09T09:24:25.067Z,140
2017-09-09T09:25:24.830Z,145
2017-09-09T09:26:25.320Z,150
2017-09-09T09:27:26.126Z,150
2017-09-09T09:28:26.521Z,150
2017-09-09T09:29:26.592Z,175
2017-09-09T09:30:26.618Z,195
2017-09-09T09:31:28.412Z,205
2017-09-09T09:32:27.278Z,210
2017-09-09T09:33:28.015Z,215
2017-09-09T09:34:27.364Z,220
2017-09-09T09:35:28.173Z,220
2017-09-09T09:36:27.547Z,220
2017-09-09T09:37:27.901Z,220
2017-09-09T09:38:28.238Z,210
2017-09-09T09:39:28.639Z,195
2017-09-09T09:40:29.474Z,185
2017-09-09T09:41:28.777Z,180
2017-09-09T09:42:29.468Z,180
2017-09-09T09:43:29.842Z,185
2017-09-09T09:44:29.520Z,175
2017-09-09T09:45:29.682Z,155
2017-09-09T09:46:29.729Z,145
2017-09-09T09:47:30.681Z,145
2017-09-09T09:48:30.146Z,145
2017-09-09T09:49:30.861Z,140
2017-09-09T09:50:30.669Z,140
2017-09-09T09:51:31.743Z,145
2017-09-09T09:52:31.073Z,150
2017-09-09T09:53:30.785Z,160
2017-09-09T09:54:30.862Z,170
2017-09-09T09:55:31.789Z,180
2017-09-09T09:56:32.112Z,185
2017-09-09T09:57:32.456Z,185
2017-09-09T09:58:31.923Z,185
2017-09-09T09:59:31.992Z,190
2017-09-09T10:00:32.618Z,190
2017-09-09T10:01:32.986Z,185
2017-09-09T10:02:32.389Z,185
2017-09-09T10:03:32.784Z,185
2017-09-09T10:04:32.516Z,185
2017-09-09T10:05:33.608Z,180
2017-09-09T10:06:33.222Z,165
2017-09-09T10:07:32.996Z,160
2017-09-09T10:08:33.033Z,165
2017-09-09T10:09:33.441Z,170
2017-09-09T10:10:34.250Z,175
2017-09-09T10:11:33.920Z,180
2017-09-09T10:12:33.667Z,180
2017-09-09T10:13:34.327Z,175
2017-09-09T10:14:34.387Z,170
2017-09-09T10:15:34.415Z,180
2017-09-09T10:16:34.198Z,185
2017-09-09T10:17:34.513Z,185
2017-09-09T10:18:34.541Z,190
2017-09-09T10:19:34.551Z,185
2017-09-09T10:20:34.641Z,180
2017-09-09T10:21:34.353Z,180
2017-09-09T10:22:34.733Z,180
2017-09-09T10:23:34.778Z,180
2017-09-09T10:24:34.496Z,180
2017-09-09T10:25:34.859Z,180
2017-09-09T10:26:35.168Z,175
2017-09-09T10:27:34.267Z,175
2017-09-09T10:28:34.303Z,195
2017-09-09T10:29:35.315Z,225
2017-09-09T10:30:34.707Z,230
2017-09-09T10:31:35.099Z,210
2017-09-09T10:32:35.442Z,200
2017-09-09T10:33:35.442Z,195
2017-09-09T10:34:35.499Z,190
2017-09-09T10:35:35.189Z,185
2017-09-09T10:36:35.599Z,185
2017-09-09T10:37:35.278Z,180
2017-09-09T10:38:36.297Z,180
2017-09-09T10:39:35.362Z,195
2017-09-09T10:40:35.790Z,200
2017-09-09T10:41:36.525Z,195
2017-09-09T10:42:36.173Z,195
2017-09-09T10:43:36.895Z,195
2017-09-09T10:44:36.656Z,185
2017-09-09T10:45:36.964Z,175
2017-09-09T10:46:36.699Z,195
2017-09-09T10:47:36.745Z,235
2017-09-09T10:48:37.401Z,255
2017-09-09T10:49:37.183Z,255
2017-09-09T10:50:36.898Z,225
2017-09-09T10:51:37.295Z,200
2017-09-09T10:52:37.294Z,195
2017-09-09T10:53:37.610Z,200
2017-09-09T10:54:37.364Z,205
2017-09-09T10:55:37.995Z,220
2017-09-09T10:56:37.720Z,235
2017-09-09T10:57:38.080Z,260
2017-09-09T10:58:38.084Z,260
2017-09-09T10:59:37.556Z,275
2017-09-09T11:00:38.219Z,280
2017-09-09T11:01:37.916Z,265
2017-09-09T11:02:38.054Z,245
2017-09-09T11:03:38.028Z,220
2017-09-09T11:04:38.054Z,210
2017-09-09T11:05:38.455Z,200
2017-09-09T11:06:38.862Z,200
2017-09-09T11:07:39.560Z,205
2017-09-09T11:08:38.957Z,205
2017-09-09T11:09:39.317Z,205
2017-09-09T11:10:40.295Z,205
2017-09-09T11:11:39.740Z,205
2017-09-09T11:12:40.723Z,215
2017-09-09T11:13:40.416Z,210
2017-09-09T11:14:40.159Z,195
2017-09-09T11:15:40.213Z,185
2017-09-09T11:16:40.903Z,205
2017-09-09T11:17:40.887Z,235
2017-09-09T11:18:40.679Z,255
2017-09-09T11:19:41.680Z,245
2017-09-09T11:20:41.721Z,215
2017-09-09T11:21:41.095Z,195
2017-09-09T11:22:41.851Z,220
2017-09-09T11:23:41.841Z,270
2017-09-09T11:24:41.553Z,330
2017-09-09T11:25:41.599Z,360
2017-09-09T11:26:41.637Z,350
2017-09-09T11:27:41.975Z,335
2017-09-09T11:28:41.672Z,320
2017-09-09T11:29:42.086Z,305
2017-09-09T11:30:41.791Z,310
2017-09-09T11:31:42.139Z,305
2017-09-09T11:32:42.498Z,280
2017-09-09T11:33:41.902Z,245
2017-09-09T11:34:41.922Z,210
2017-09-09T11:35:42.651Z,185
2017-09-09T11:36:42.051Z,155
2017-09-09T11:37:42.694Z,140
2017-09-09T11:38:42.091Z,145
2017-09-09T11:39:42.429Z,165
2017-09-09T11:40:42.132Z,200
2017-09-09T11:41:42.855Z,250
2017-09-09T11:42:42.219Z,285
2017-09-09T11:43:42.627Z,285
2017-09-09T11:44:42.619Z,260
2017-09-09T11:45:43.255Z,230
2017-09-09T11:46:42.691Z,195
2017-09-09T11:47:43.356Z,170
2017-09-09T11:48:42.452Z,160
2017-09-09T11:49:43.389Z,150
2017-09-09T11:50:43.433Z,175
2017-09-09T11:51:44.058Z,215
2017-09-09T11:52:43.510Z,220
2017-09-09T11:53:43.599Z,205
2017-09-09T11:54:43.368Z,200
2017-09-09T11:55:43.685Z,205
2017-09-09T11:56:44.670Z,185
2017-09-09T11:57:44.165Z,170
2017-09-09T11:58:45.251Z,160
2017-09-09T11:59:44.608Z,160
2017-09-09T12:00:45.609Z,170
2017-09-09T12:01:45.616Z,200
2017-09-09T12:02:45.410Z,185
2017-09-09T12:03:45.360Z,165
2017-09-09T12:04:45.109Z,150
2017-09-09T12:05:45.469Z,150
2017-09-09T12:06:45.193Z,150
2017-09-09T12:07:45.235Z,160
2017-09-09T12:08:45.599Z,165
2017-09-09T12:09:45.629Z,150
2017-09-09T12:10:45.974Z,145
2017-09-09T12:11:45.764Z,150
2017-09-09T12:12:45.419Z,140
2017-09-09T12:13:46.117Z,145
2017-09-09T12:14:45.520Z,135
2017-09-09T12:15:46.507Z,130
2017-09-09T12:16:46.181Z,130
2017-09-09T12:17:46.243Z,130
2017-09-09T12:18:46.019Z,125
2017-09-09T12:19:46.856Z,115
2017-09-09T12:20:47.275Z,120
2017-09-09T12:21:47.013Z,140
2017-09-09T12:22:46.724Z,145
2017-09-09T12:23:46.717Z,150
2017-09-09T12:24:47.352Z,160
2017-09-09T12:25:47.392Z,160
2017-09-09T12:26:47.386Z,170
2017-09-09T12:27:47.094Z,165
2017-09-09T12:28:47.132Z,155
2017-09-09T12:29:47.492Z,135
2017-09-09T12:30:47.241Z,130
2017-09-09T12:31:47.285Z,130
2017-09-09T12:32:47.912Z,135
2017-09-09T12:33:47.946Z,140
2017-09-09T12:34:47.716Z,145
2017-09-09T12:35:48.018Z,150
2017-09-09T12:36:47.786Z,155
2017-09-09T12:37:47.824Z,145
2017-09-09T12:38:48.151Z,135
2017-09-09T12:39:48.142Z,130
2017-09-09T12:40:47.615Z,125
2017-09-09T12:41:48.290Z,115
2017-09-09T12:42:48.029Z,105
2017-09-09T12:43:48.988Z,110
2017-09-09T12:44:48.416Z,110
2017-09-09T12:45:49.050Z,110
2017-09-09T12:46:49.447Z,110
2017-09-09T12:47:48.828Z,115
2017-09-09T12:48:48.902Z,130
2017-09-09T12:49:48.983Z,150
2017-09-09T12:50:49.286Z,165
2017-09-09T12:51:49.345Z,175
2017-09-09T12:52:49.044Z,175
2017-09-09T12:53:48.790Z,175
2017-09-09T12:54:49.758Z,170
2017-09-09T12:55:49.480Z,170
2017-09-09T12:56:49.197Z,165
2017-09-09T12:57:50.156Z,155
2017-09-09T12:58:49.559Z,135
2017-09-09T12:59:49.922Z,115
2017-09-09T13:00:50.261Z,110
2017-09-09T13:01:49.991Z,105
2017-09-09T13:02:49.733Z,110
2017-09-09T13:03:50.428Z,110
2017-09-09T13:04:50.136Z,110
2017-09-09T13:05:50.797Z,110
2017-09-09T13:06:51.130Z,120
2017-09-09T13:07:50.556Z,120
2017-09-09T13:08:51.202Z,120
2017-09-09T13:09:50.692Z,120
2017-09-09T13:10:51.299Z,125
2017-09-09T13:11:51.331Z,125
2017-09-09T13:12:51.671Z,120
2017-09-09T13:13:51.964Z,130
2017-09-09T13:14:51.427Z,155
2017-09-09T13:15:51.763Z,175
2017-09-09T13:16:52.145Z,190
2017-09-09T13:17:51.856Z,190
2017-09-09T13:18:52.492Z,185
2017-09-09T13:19:52.253Z,175
2017-09-09T13:20:52.591Z,175
2017-09-09T13:21:52.348Z,175
2017-09-09T13:22:52.753Z,180
2017-09-09T13:23:53.074Z,180
2017-09-09T13:24:53.722Z,185
2017-09-09T13:25:53.141Z,195
2017-09-09T13:26:54.158Z,205
2017-09-09T13:27:53.852Z,205
2017-09-09T13:28:53.587Z,195
2017-09-09T13:29:53.561Z,190
2017-09-09T13:30:53.908Z,180
2017-09-09T13:31:53.941Z,175
2017-09-09T13:32:54.936Z,170
2017-09-09T13:33:54.049Z,165
2017-09-09T13:34:54.648Z,160
2017-09-09T13:35:55.057Z,170
2017-09-09T13:36:55.048Z,180
2017-09-09T13:37:54.775Z,180
2017-09-09T13:38:54.550Z,170
2017-09-09T13:39:54.945Z,165
2017-09-09T13:40:55.287Z,165
2017-09-09T13:41:55.338Z,170
2017-09-09T13:42:55.673Z,170
2017-09-09T13:43:55.407Z,175
2017-09-09T13:44:55.498Z,185
2017-09-09T13:45:55.810Z,190
2017-09-09T13:46:55.553Z,205
2017-09-09T13:47:55.591Z,210
2017-09-09T13:48:56.316Z,205
2017-09-09T13:49:56.358Z,205
2017-09-09T13:50:56.355Z,230
2017-09-09T13:51:56.420Z,260
2017-09-09T13:52:57.102Z,285
2017-09-09T13:53:57.106Z,310
2017-09-09T13:54:57.169Z,315
2017-09-09T13:55:57.155Z,315
2017-09-09T13:56:57.244Z,315
2017-09-09T13:57:57.261Z,305
2017-09-09T13:58:57.291Z,290
2017-09-09T13:59:57.362Z,295
2017-09-09T14:00:57.675Z,295
2017-09-09T14:01:57.361Z,275
2017-09-09T14:02:58.082Z,260
2017-09-09T14:03:57.464Z,260
2017-09-09T14:04:58.112Z,255
2017-09-09T14:05:57.561Z,235
2017-09-09T14:06:57.936Z,215
2017-09-09T14:07:58.566Z,210
2017-09-09T14:08:58.050Z,210
2017-09-09T14:09:58.712Z,225